createdAt,value
2023-02-27T00:00:15.133Z,100626.72
2023-02-27T00:03:18.253Z,100624.44
2023-02-27T00:06:22.301Z,100632.03
2023-02-27T00:09:25.462Z,100632.94
2023-02-27T00:12:28.013Z,100635.50
2023-02-27T00:15:32.298Z,100643.22
2023-02-27T00:18:35.249Z,100648.22
2023-02-27T00:21:38.567Z,100648.72
2023-02-27T00:24:41.402Z,100645.47
2023-02-27T00:27:45.149Z,100649.50
2023-02-27T00:30:48.114Z,100653.28
2023-02-27T00:33:51.125Z,100658.53
2023-02-27T00:36:54.112Z,100656.88
2023-02-27T00:39:57.397Z,100655.19
2023-02-27T00:43:00.218Z,100651.97
2023-02-27T00:46:05.497Z,100661.44
2023-02-27T00:49:08.805Z,100663.69
2023-02-27T00:52:12.220Z,100664.91
2023-02-27T00:55:14.903Z,100662.56
2023-02-27T00:58:18.838Z,100661.34
2023-02-27T01:01:21.653Z,100674.28
2023-02-27T01:04:25.473Z,100679.66
2023-02-27T01:07:29.293Z,100676.97
2023-02-27T01:10:32.849Z,100684.41
2023-02-27T01:13:38.412Z,100681.84
2023-02-27T01:16:41.194Z,100676.97
2023-02-27T01:19:44.075Z,100679.28
2023-02-27T01:22:47.048Z,100677.25
2023-02-27T01:25:50.172Z,100674.03
2023-02-27T01:28:52.919Z,100676.59
2023-02-27T01:31:55.565Z,100677.84
2023-02-27T01:34:58.782Z,100677.19
2023-02-27T01:38:02.406Z,100685.00
2023-02-27T01:41:07.299Z,100678.53
2023-02-27T01:44:12.109Z,100683.00
2023-02-27T01:47:15.106Z,100690.72
2023-02-27T01:50:20.202Z,100694.63
2023-02-27T01:53:27.175Z,100692.94
2023-02-27T01:56:32.134Z,100697.41
2023-02-27T01:59:36.842Z,100692.16
2023-02-27T02:02:47.694Z,100695.19
2023-02-27T02:05:53.770Z,100709.16
2023-02-27T02:08:59.705Z,100711.72
2023-02-27T02:12:04.202Z,100716.06
2023-02-27T02:15:07.654Z,100720.75
2023-02-27T02:18:19.519Z,100729.81
2023-02-27T02:21:49.446Z,100729.94
2023-02-27T02:24:55.318Z,100727.47
2023-02-27T02:28:10.710Z,100737.19
2023-02-27T02:31:33.520Z,100747.34
2023-02-27T02:34:45.597Z,100751.16
2023-02-27T02:37:57.611Z,100746.47
2023-02-27T02:41:46.906Z,100751.81
2023-02-27T02:45:21.502Z,100756.84
2023-02-27T02:48:36.510Z,100759.88
2023-02-27T02:51:43.459Z,100766.34
2023-02-27T02:55:16.855Z,100770.34
2023-02-27T02:58:32.882Z,100769.69
2023-02-27T03:01:46.321Z,100770.34
2023-02-27T03:04:56.004Z,100770.00
2023-02-27T03:08:03.676Z,100779.50
2023-02-27T03:11:08.566Z,100780.06
2023-02-27T03:14:20.028Z,100785.31
2023-02-27T03:17:49.586Z,100785.44
2023-02-27T03:20:57.608Z,100787.31
2023-02-27T03:24:04.888Z,100799.63
2023-02-27T03:27:09.621Z,100796.16
2023-02-27T03:30:26.374Z,100797.41
2023-02-27T03:33:36.239Z,100809.69
2023-02-27T03:36:49.696Z,100810.25
2023-02-27T03:40:06.836Z,100812.28
2023-02-27T03:43:20.885Z,100808.69
2023-02-27T03:46:26.783Z,100821.13
2023-02-27T03:49:29.941Z,100814.41
2023-02-27T03:52:33.575Z,100822.78
2023-02-27T03:55:40.166Z,100821.00
2023-02-27T03:58:43.944Z,100816.75
2023-02-27T04:01:47.860Z,100818.97
2023-02-27T04:04:52.457Z,100821.78
2023-02-27T04:08:24.663Z,100822.66
2023-02-27T04:11:35.835Z,100828.12
2023-02-27T04:15:06.542Z,100822.09
2023-02-27T04:18:27.739Z,100824.34
2023-02-27T04:21:59.274Z,100838.75
2023-02-27T04:25:27.916Z,100837.63
2023-02-27T04:28:43.652Z,100837.31
2023-02-27T04:32:03.165Z,100843.34
2023-02-27T04:35:12.869Z,100845.16
2023-02-27T04:39:01.327Z,100849.50
2023-02-27T04:42:21.838Z,100842.69
2023-02-27T04:45:28.836Z,100850.84
2023-02-27T04:48:41.674Z,100851.28
2023-02-27T04:51:54.281Z,100860.09
2023-02-27T04:55:02.070Z,100857.87
2023-02-27T04:58:16.709Z,100849.94
2023-02-27T05:01:38.150Z,100852.91
2023-02-27T05:04:46.516Z,100863.53
2023-02-27T05:08:01.248Z,100871.69
2023-02-27T05:11:32.519Z,100873.59
2023-02-27T05:14:42.852Z,100874.25
2023-02-27T05:17:46.166Z,100875.91
2023-02-27T05:21:09.466Z,100883.50
2023-02-27T05:24:36.491Z,100888.19
2023-02-27T05:27:59.526Z,100899.47
2023-02-27T05:31:16.153Z,100899.03
2023-02-27T05:34:41.492Z,100898.16
2023-02-27T05:37:53.430Z,100902.50
2023-02-27T05:41:12.281Z,100906.22
2023-02-27T05:44:20.115Z,100909.97
2023-02-27T05:47:33.619Z,100916.91
2023-02-27T05:50:38.933Z,100912.31
2023-02-27T05:53:46.444Z,100931.31
2023-02-27T05:56:55.316Z,100935.78
2023-02-27T06:00:19.159Z,100935.25
2023-02-27T06:03:22.929Z,100944.22
2023-02-27T06:06:28.084Z,100961.00
2023-02-27T06:09:34.678Z,100963.03
2023-02-27T06:12:46.151Z,100967.50
2023-02-27T06:15:54.908Z,100973.78
2023-02-27T06:18:57.741Z,100975.31
2023-02-27T06:22:00.553Z,100981.19
2023-02-27T06:25:03.863Z,100986.37
2023-02-27T06:28:08.126Z,100997.69
2023-02-27T06:31:11.602Z,101007.59
2023-02-27T06:34:14.989Z,101011.53
2023-02-27T06:37:17.751Z,101018.72
2023-02-27T06:40:23.217Z,101026.00
2023-02-27T06:43:30.156Z,101027.97
2023-02-27T06:46:35.335Z,101031.13
2023-02-27T06:49:52.113Z,101038.81
2023-02-27T06:53:03.952Z,101046.81
2023-02-27T06:56:08.389Z,101051.72
2023-02-27T06:59:15.842Z,101050.34
2023-02-27T07:02:18.724Z,101045.00
2023-02-27T07:05:22.099Z,101047.66
2023-02-27T07:08:25.842Z,101052.94
2023-02-27T07:11:29.971Z,101055.19
2023-02-27T07:14:35.094Z,101060.87
2023-02-27T07:17:42.314Z,101064.22
2023-02-27T07:20:45.358Z,101064.13
2023-02-27T07:23:50.533Z,101065.13
2023-02-27T07:26:54.055Z,101070.94
2023-02-27T07:30:01.779Z,101072.09
2023-02-27T07:33:12.351Z,101074.00
2023-02-27T07:36:15.931Z,101073.63
2023-02-27T07:39:19.560Z,101078.66
2023-02-27T07:42:22.860Z,101072.09
2023-02-27T07:45:28.710Z,101067.19
2023-02-27T07:48:35.269Z,101072.47
2023-02-27T07:51:40.058Z,101071.91
2023-02-27T07:54:43.565Z,101068.88
2023-02-27T07:57:48.291Z,101072.34
2023-02-27T08:00:55.168Z,101078.03
2023-02-27T08:03:58.606Z,101094.28
2023-02-27T08:07:03.272Z,101103.50
2023-02-27T08:10:07.112Z,101101.47
2023-02-27T08:13:11.998Z,101109.66
2023-02-27T08:16:20.218Z,101116.94
2023-02-27T08:19:25.173Z,101117.84
2023-02-27T08:22:33.441Z,101118.41
2023-02-27T08:25:40.537Z,101112.25
2023-02-27T08:28:44.820Z,101119.84
2023-02-27T08:31:52.730Z,101128.25
2023-02-27T08:35:00.206Z,101138.91
2023-02-27T08:38:10.529Z,101149.66
2023-02-27T08:41:15.260Z,101149.66
2023-02-27T08:44:18.022Z,101141.94
2023-02-27T08:47:21.305Z,101145.25
2023-02-27T08:50:25.974Z,101146.75
2023-02-27T08:53:30.454Z,101148.53
2023-02-27T08:56:35.128Z,101154.59
2023-02-27T08:59:38.572Z,101150.31
2023-02-27T09:02:42.678Z,101147.72
2023-02-27T09:05:53.548Z,101156.38
2023-02-27T09:09:00.352Z,101162.78
2023-02-27T09:12:04.655Z,101152.22
2023-02-27T09:15:09.082Z,101152.78
2023-02-27T09:18:13.953Z,101158.94
2023-02-27T09:21:18.648Z,101152.31
2023-02-27T09:24:25.204Z,101160.75
2023-02-27T09:27:29.289Z,101164.09
2023-02-27T09:30:34.202Z,101159.84
2023-02-27T09:33:38.501Z,101156.25
2023-02-27T09:36:44.237Z,101155.87
2023-02-27T09:39:48.567Z,101157.78
2023-02-27T09:42:58.233Z,101165.19
2023-02-27T09:46:02.341Z,101169.72
2023-02-27T09:49:16.969Z,101169.47
2023-02-27T09:52:21.839Z,101176.00
2023-02-27T09:55:31.061Z,101179.91
2023-02-27T09:58:50.379Z,101175.06
2023-02-27T10:02:06.326Z,101173.53
2023-02-27T10:05:36.440Z,101182.41
2023-02-27T10:08:54.225Z,101186.53
2023-02-27T10:12:07.567Z,101187.53
2023-02-27T10:15:35.561Z,101185.66
2023-02-27T10:18:54.383Z,101173.81
2023-02-27T10:22:00.452Z,101170.69
2023-02-27T10:25:31.354Z,101174.94
2023-02-27T10:28:35.853Z,101169.28
2023-02-27T10:31:40.474Z,101159.78
2023-02-27T10:34:49.569Z,101161.69
2023-02-27T10:38:01.280Z,101159.47
2023-02-27T10:41:15.112Z,101154.22
2023-02-27T10:44:21.462Z,101167.81
2023-02-27T10:47:26.018Z,101165.22
2023-02-27T10:50:37.067Z,101168.69
2023-02-27T10:53:40.408Z,101170.62
2023-02-27T10:57:00.136Z,101173.03
2023-02-27T11:00:12.211Z,101163.00
2023-02-27T11:03:25.828Z,101173.94
2023-02-27T11:06:28.757Z,101175.81
2023-02-27T11:09:36.798Z,101171.00
2023-02-27T11:12:42.255Z,101171.63
2023-02-27T11:16:07.102Z,101172.13
2023-02-27T11:19:26.762Z,101171.59
2023-02-27T11:22:32.336Z,101177.72
2023-02-27T11:25:35.974Z,101174.91
2023-02-27T11:28:40.074Z,101182.69
2023-02-27T11:31:53.174Z,101163.25
2023-02-27T11:34:58.540Z,101175.56
2023-02-27T11:38:05.358Z,101175.69
2023-02-27T11:41:13.015Z,101173.91
2023-02-27T11:44:27.384Z,101173.03
2023-02-27T11:47:50.453Z,101178.00
2023-02-27T11:51:26.322Z,101178.47
2023-02-27T11:54:40.418Z,101165.69
2023-02-27T11:57:48.595Z,101160.13
2023-02-27T12:00:57.452Z,101164.72
2023-02-27T12:04:18.166Z,101158.87
2023-02-27T12:07:46.782Z,101155.53
2023-02-27T12:11:14.767Z,101157.56
2023-02-27T12:14:27.551Z,101157.66
2023-02-27T12:17:40.961Z,101159.03
2023-02-27T12:21:10.048Z,101157.81
2023-02-27T12:24:28.560Z,101166.03
2023-02-27T12:27:49.049Z,101165.94
2023-02-27T12:31:06.476Z,101174.19
2023-02-27T12:34:29.561Z,101178.22
2023-02-27T12:37:35.826Z,101190.56
2023-02-27T12:40:59.797Z,101178.88
2023-02-27T12:44:18.796Z,101181.00
2023-02-27T12:47:53.675Z,101186.16
2023-02-27T12:51:21.663Z,101184.28
2023-02-27T12:54:39.650Z,101191.00
2023-02-27T12:58:08.118Z,101192.03
2023-02-27T13:01:42.714Z,101186.56
2023-02-27T13:04:54.899Z,101191.25
2023-02-27T13:08:07.363Z,101192.41
2023-02-27T13:11:39.154Z,101200.09
2023-02-27T13:15:16.132Z,101194.22
2023-02-27T13:18:26.125Z,101205.06
2023-02-27T13:38:09.991Z,101197.16
2023-02-27T13:42:25.333Z,101199.06
2023-02-27T13:45:52.350Z,101192.66
2023-02-27T13:49:04.766Z,101182.78
2023-02-27T13:52:08.563Z,101196.47
2023-02-27T13:55:28.730Z,101190.72
2023-02-27T13:58:33.195Z,101207.72
2023-02-27T14:01:46.072Z,101200.78
2023-02-27T14:04:54.567Z,101209.53
2023-02-27T14:08:29.561Z,101205.63
2023-02-27T14:11:40.292Z,101205.69
2023-02-27T14:14:50.204Z,101208.94
2023-02-27T14:18:12.608Z,101209.13
2023-02-27T14:21:51.532Z,101181.69
2023-02-27T14:25:03.592Z,101201.72
2023-02-27T14:28:38.356Z,101200.97
2023-02-27T14:31:44.732Z,101192.97
2023-02-27T14:35:02.114Z,101188.38
2023-02-27T14:38:12.166Z,101201.03
2023-02-27T14:41:44.870Z,101182.37
2023-02-27T14:44:56.974Z,101210.75
2023-02-27T14:48:11.384Z,101213.84
2023-02-27T14:51:17.735Z,101217.41
2023-02-27T14:54:29.327Z,101186.94
2023-02-27T14:57:37.328Z,101213.31
2023-02-27T15:00:50.833Z,101209.00
2023-02-27T15:03:58.339Z,101211.78
2023-02-27T15:07:05.584Z,101213.47
2023-02-27T15:10:26.060Z,101217.44
2023-02-27T15:13:41.551Z,101210.47
2023-02-27T15:16:47.275Z,101235.34
2023-02-27T15:19:56.917Z,101245.78
2023-02-27T15:23:24.342Z,101252.91
2023-02-27T15:26:43.103Z,101262.00
2023-02-27T15:29:53.124Z,101255.72
2023-02-27T15:32:59.259Z,101264.72
2023-02-27T15:36:24.033Z,101275.22
2023-02-27T15:39:36.104Z,101280.53
2023-02-27T15:42:43.346Z,101277.41
2023-02-27T15:45:49.156Z,101267.13
2023-02-27T15:48:56.193Z,101278.94
2023-02-27T15:52:20.291Z,101287.25
2023-02-27T15:55:30.137Z,101298.78
2023-02-27T15:58:45.024Z,101307.09
2023-02-27T16:01:53.068Z,101306.66
2023-02-27T16:05:01.277Z,101310.25
2023-02-27T16:08:06.987Z,101317.44
2023-02-27T16:11:20.084Z,101277.69
2023-02-27T16:14:51.995Z,101330.44
2023-02-27T16:18:02.117Z,101310.88
2023-02-27T16:21:14.521Z,101332.41
2023-02-27T16:24:31.036Z,101344.72
2023-02-27T16:27:50.474Z,101352.56
2023-02-27T16:30:58.695Z,101349.50
2023-02-27T16:34:26.121Z,101351.84
2023-02-27T16:37:38.944Z,101361.47
2023-02-27T16:40:47.597Z,101368.25
2023-02-27T16:44:01.250Z,101375.00
2023-02-27T16:47:09.538Z,101379.56
2023-02-27T16:50:17.624Z,101384.34
2023-02-27T16:53:24.532Z,101391.22
2023-02-27T16:56:39.420Z,101394.22
2023-02-27T16:59:59.125Z,101391.03
2023-02-27T17:42:07.298Z,101435.81
2023-02-27T17:45:12.543Z,101437.88
2023-02-27T17:48:27.163Z,101445.81
2023-02-27T17:51:39.079Z,101453.78
2023-02-27T17:54:51.742Z,101452.84
2023-02-27T17:58:02.058Z,101461.56
2023-02-27T18:01:14.080Z,101467.53
2023-02-27T18:04:25.700Z,101467.50
2023-02-27T18:07:31.092Z,101464.03
2023-02-27T18:10:54.079Z,101469.69
2023-02-27T18:14:08.413Z,101441.13
2023-02-27T18:17:26.073Z,101471.44
2023-02-27T18:20:40.468Z,101462.78
2023-02-27T18:24:00.996Z,101468.81
2023-02-27T18:31:47.077Z,101489.41
2023-02-27T18:34:58.739Z,101506.06
2023-02-27T18:38:09.094Z,101511.91
2023-02-27T18:41:16.250Z,101508.56
2023-02-27T18:44:19.579Z,101523.22
2023-02-27T18:47:25.670Z,101518.44
2023-02-27T18:50:31.310Z,101522.50
2023-02-27T18:53:49.181Z,101524.94
2023-02-27T18:57:00.784Z,101534.94
2023-02-27T19:00:19.109Z,101536.22
2023-02-27T19:03:25.178Z,101539.94
2023-02-27T19:06:42.350Z,101532.34
2023-02-27T19:09:50.356Z,101542.19
2023-02-27T19:13:14.402Z,101555.03
2023-02-27T19:16:22.228Z,101561.34
2023-02-27T19:19:30.040Z,101567.88
2023-02-27T19:22:34.130Z,101576.63
2023-02-27T19:25:43.621Z,101569.81
2023-02-27T19:28:57.393Z,101575.09
2023-02-27T19:32:07.699Z,101557.88
2023-02-27T19:35:17.288Z,101561.50
2023-02-27T19:38:27.712Z,101564.81
2023-02-27T19:41:34.255Z,101563.00
2023-02-27T19:44:45.152Z,101572.66
2023-02-27T19:47:51.060Z,101569.81
2023-02-27T19:51:07.506Z,101578.16
2023-02-27T19:54:20.003Z,101586.75
2023-02-27T19:57:30.752Z,101588.28
2023-02-27T20:00:40.292Z,101582.31
2023-02-27T20:03:53.063Z,101612.66
2023-02-27T20:06:56.368Z,101623.53
2023-02-27T20:10:06.454Z,101607.72
2023-02-27T20:13:17.011Z,101628.12
2023-02-27T20:16:27.444Z,101612.78
2023-02-27T20:19:33.063Z,101610.50
2023-02-27T20:22:43.540Z,101619.56
2023-02-27T20:25:47.987Z,101609.31
2023-02-27T20:29:01.087Z,101610.84
2023-02-27T20:32:13.279Z,101608.91
2023-02-27T20:35:30.281Z,101627.47
2023-02-27T20:38:40.200Z,101632.63
2023-02-27T20:41:49.369Z,101634.75
2023-02-27T20:44:55.747Z,101633.56
2023-02-27T20:48:02.076Z,101640.84
2023-02-27T20:51:23.461Z,101645.09
2023-02-27T20:54:31.117Z,101641.16
2023-02-27T20:57:39.538Z,101623.87
2023-02-27T21:00:44.636Z,101650.66
2023-02-27T21:03:51.382Z,101663.34
2023-02-27T21:06:57.128Z,101658.53
2023-02-27T21:10:00.045Z,101656.13
2023-02-27T21:13:06.039Z,101657.03
2023-02-27T21:16:14.077Z,101676.66
2023-02-27T21:19:22.731Z,101674.84
2023-02-27T21:22:26.285Z,101678.91
2023-02-27T21:25:33.363Z,101666.72
2023-02-27T21:28:43.074Z,101680.31
2023-02-27T21:31:49.116Z,101683.63
2023-02-27T21:34:53.286Z,101675.94
2023-02-27T21:37:56.772Z,101682.44
2023-02-27T21:41:17.004Z,101683.03
2023-02-27T21:44:25.254Z,101685.00
2023-02-27T21:47:28.998Z,101691.66
2023-02-27T21:50:46.245Z,101691.94
2023-02-27T21:53:57.040Z,101679.44
2023-02-27T21:57:03.216Z,101681.72
2023-02-27T22:00:12.006Z,101675.81
2023-02-27T22:03:18.513Z,101682.03
2023-02-27T22:06:24.755Z,101683.69
2023-02-27T22:09:33.181Z,101676.19
2023-02-27T22:12:38.256Z,101679.19
2023-02-27T22:15:43.066Z,101685.69
2023-02-27T22:18:47.854Z,101675.16
2023-02-27T22:21:51.602Z,101654.56
2023-02-27T22:24:55.214Z,101687.53
2023-02-27T22:27:59.915Z,101687.22
2023-02-27T22:31:12.198Z,101687.06
2023-02-27T22:34:25.284Z,101677.41
2023-02-27T22:37:28.742Z,101685.88
2023-02-27T22:40:35.988Z,101695.97
2023-02-27T22:43:39.845Z,101694.94
2023-02-27T22:46:47.098Z,101677.00
2023-02-27T22:49:51.384Z,101683.78
2023-02-27T22:52:54.929Z,101680.31
2023-02-27T22:55:57.438Z,101685.88
2023-02-27T22:59:01.314Z,101689.47
2023-02-27T23:02:06.413Z,101689.91
2023-02-27T23:05:09.870Z,101689.47
2023-02-27T23:08:12.748Z,101699.59
2023-02-27T23:11:18.503Z,101702.91
2023-02-27T23:14:22.536Z,101696.41
2023-02-27T23:17:25.432Z,101694.13
2023-02-27T23:20:28.059Z,101694.00
2023-02-27T23:23:30.781Z,101690.06
2023-02-27T23:26:38.177Z,101700.31
2023-02-27T23:29:41.245Z,101694.28
2023-02-27T23:32:47.235Z,101703.03
2023-02-27T23:35:51.963Z,101701.50
2023-02-27T23:38:59.104Z,101709.34
2023-02-27T23:42:02.404Z,101712.97
2023-02-27T23:45:05.795Z,101715.66
2023-02-27T23:48:09.286Z,101716.72
2023-02-27T23:51:12.358Z,101721.66
2023-02-27T23:54:15.733Z,101714.87
2023-02-27T23:57:18.262Z,101717.44
